Time;durP1;ratioP1;P1;durP2;ratioP2;P2;SDS_P1;SDS_P2;PMS_P1;PMS_P2;Temp;Humidity;BMP_temperature;BMP_pressure;BME280_temperature;BME280_humidity;BME280_pressure;Samples;Min_cycle;Max_cycle;Signal;HPM_P1;HPM_P2
2022/09/16 00:00:57;;;;;;;3.88;0.80;;;;;;;;;;4998148;28;20504;-80
2022/09/16 00:03:23;;;;;;;1.33;0.52;;;;;;;;;;4998234;28;20471;-80
2022/09/16 00:05:50;;;;;;;1.85;0.65;;;;;;;;;;4998309;28;20038;-80
2022/09/16 00:08:15;;;;;;;3.53;0.80;;;;;;;;;;5014121;28;20044;-81
2022/09/16 00:10:42;;;;;;;2.53;0.82;;;;;;;;;;5014660;28;20037;-80
2022/09/16 00:13:07;;;;;;;2.45;0.70;;;;;;;;;;4997664;28;20034;-81
2022/09/16 00:15:33;;;;;;;2.92;0.82;;;;;;;;;;4998287;28;20030;-80
2022/09/16 00:17:58;;;;;;;3.15;0.85;;;;;;;;;;4997827;28;20045;-80
2022/09/16 00:20:24;;;;;;;1.88;0.77;;;;;;;;;;4998026;28;20423;-80
2022/09/16 00:22:49;;;;;;;1.98;0.50;;;;;;;;;;4997956;28;20411;-80
2022/09/16 00:25:15;;;;;;;3.53;0.82;;;;;;;;;;4997395;28;20045;-80
2022/09/16 00:27:40;;;;;;;3.10;0.73;;;;;;;;;;4997840;28;20412;-80
2022/09/16 00:30:07;;;;;;;2.42;0.75;;;;;;;;;;5016776;28;20419;-80
2022/09/16 00:32:32;;;;;;;2.95;0.75;;;;;;;;;;5017426;28;20037;-80
2022/09/16 00:34:58;;;;;;;2.90;0.52;;;;;;;;;;5017537;28;20037;-80
2022/09/16 00:37:23;;;;;;;2.10;0.70;;;;;;;;;;5000917;28;20029;-80
2022/09/16 00:39:49;;;;;;;2.17;0.80;;;;;;;;;;5017180;28;20051;-80
2022/09/16 00:42:15;;;;;;;1.95;0.55;;;;;;;;;;5000920;28;20411;-80
2022/09/16 00:44:55;;;;;;;3.70;0.68;;;;;;;;;;5000843;28;20045;-80
2022/09/16 00:47:24;;;;;;;14.48;9.38;;;;;;;;;;5018173;28;20507;-80
2022/09/16 00:49:50;;;;;;;8.98;5.15;;;;;;;;;;4997876;28;20044;-79
2022/09/16 00:52:15;;;;;;;6.30;3.38;;;;;;;;;;4992419;28;20033;-80
2022/09/16 00:54:41;;;;;;;7.32;3.05;;;;;;;;;;4981011;28;20381;-80
2022/09/16 00:57:06;;;;;;;7.47;3.00;;;;;;;;;;4981806;28;20399;-80
2022/09/16 00:59:36;;;;;;;5.22;2.85;;;;;;;;;;4981538;28;20132;-80
2022/09/16 01:02:05;;;;;;;5.50;2.95;;;;;;;;;;4981726;28;20290;-80
2022/09/16 01:04:32;;;;;;;5.50;2.72;;;;;;;;;;4981758;28;20037;-80
2022/09/16 01:06:57;;;;;;;7.30;3.13;;;;;;;;;;4980869;28;20037;-80
2022/09/16 01:09:24;;;;;;;5.18;3.00;;;;;;;;;;4980324;28;20446;-80
2022/09/16 01:11:50;;;;;;;5.53;3.38;;;;;;;;;;4981271;28;20037;-81
2022/09/16 01:17:00;;;;;;;5.63;2.67;;;;;;;;;;4999722;28;20030;-80
2022/09/16 01:19:56;;;;;;;6.28;3.60;;;;;;;;;;5013614;28;20037;-80
2022/09/16 01:22:43;;;;;;;5.05;2.67;;;;;;;;;;5013384;28;20025;-80
2022/09/16 01:25:18;;;;;;;5.55;2.20;;;;;;;;;;5013308;28;20091;-80
2022/09/16 01:28:27;;;;;;;7.50;2.90;;;;;;;;;;5013670;28;20033;-80
2022/09/16 01:31:22;;;;;;;5.88;2.83;;;;;;;;;;4910432;29;20128;-79
2022/09/16 01:34:18;;;;;;;5.85;2.50;;;;;;;;;;4915855;29;20040;-79
2022/09/16 01:37:02;;;;;;;5.38;2.47;;;;;;;;;;4999909;28;20045;-78
2022/09/16 01:39:34;;;;;;;3.45;1.88;;;;;;;;;;5001876;28;20087;-78
2022/09/16 01:42:05;;;;;;;5.10;2.38;;;;;;;;;;5000788;28;20089;-78
2022/09/16 01:44:46;;;;;;;5.13;2.70;;;;;;;;;;5017184;28;20437;-78
2022/09/16 01:47:30;;;;;;;4.43;2.33;;;;;;;;;;5001399;28;20266;-78
2022/09/16 01:50:21;;;;;;;5.47;2.50;;;;;;;;;;5032848;28;20090;-78
2022/09/16 01:53:08;;;;;;;4.55;1.83;;;;;;;;;;5002071;28;20041;-79
2022/09/16 01:55:39;;;;;;;3.47;1.83;;;;;;;;;;5033457;28;20075;-79
2022/09/16 01:58:07;;;;;;;4.20;1.90;;;;;;;;;;5051001;28;20047;-79
2022/09/16 02:00:33;;;;;;;4.20;2.10;;;;;;;;;;5016700;28;20045;-78
2022/09/16 02:03:00;;;;;;;5.70;2.15;;;;;;;;;;5016248;28;20128;-79
2022/09/16 02:05:28;;;;;;;6.10;1.70;;;;;;;;;;5032874;28;20040;-79
2022/09/16 02:07:56;;;;;;;4.90;2.20;;;;;;;;;;5032642;28;20040;-79
2022/09/16 02:10:39;;;;;;;3.78;1.08;;;;;;;;;;5032987;28;20045;-79
2022/09/16 02:13:09;;;;;;;4.18;1.35;;;;;;;;;;5000079;28;20048;-79
2022/09/16 02:15:35;;;;;;;3.85;1.55;;;;;;;;;;5016273;28;20056;-79
2022/09/16 02:18:06;;;;;;;5.20;1.58;;;;;;;;;;5032679;28;20045;-79
2022/09/16 02:20:31;;;;;;;4.05;1.77;;;;;;;;;;5018374;28;20114;-78
2022/09/16 02:23:00;;;;;;;3.05;1.48;;;;;;;;;;5036542;28;20435;-78
2022/09/16 02:25:25;;;;;;;4.15;1.38;;;;;;;;;;5020145;28;20045;-78
2022/09/16 02:27:51;;;;;;;3.05;1.10;;;;;;;;;;5019699;28;20449;-79
2022/09/16 02:30:18;;;;;;;3.72;1.27;;;;;;;;;;5032936;28;20111;-78
2022/09/16 02:32:54;;;;;;;3.10;1.40;;;;;;;;;;5016209;28;20038;-79
2022/09/16 02:35:20;;;;;;;5.80;1.23;;;;;;;;;;5016600;28;20049;-79
2022/09/16 02:37:47;;;;;;;4.60;1.38;;;;;;;;;;5003334;28;20032;-79
2022/09/16 02:40:28;;;;;;;3.15;1.00;;;;;;;;;;5019755;28;20072;-79
2022/09/16 02:42:56;;;;;;;5.40;1.60;;;;;;;;;;5004693;28;20037;-79
2022/09/16 02:45:23;;;;;;;3.20;1.20;;;;;;;;;;5003737;28;20045;-79
2022/09/16 02:48:03;;;;;;;2.00;0.80;;;;;;;;;;5003336;28;20032;-79
2022/09/16 02:50:34;;;;;;;2.78;1.10;;;;;;;;;;5000228;28;20076;-78
2022/09/16 02:53:04;;;;;;;2.78;0.90;;;;;;;;;;5019116;28;20116;-78
2022/09/16 02:56:34;;;;;;;2.63;1.52;;;;;;;;;;5019306;28;20170;-79
2022/09/16 02:58:59;;;;;;;5.20;1.50;;;;;;;;;;4966983;28;20041;-78
2022/09/16 03:01:25;;;;;;;4.07;0.80;;;;;;;;;;5035196;28;20060;-78
2022/09/16 03:03:54;;;;;;;3.50;0.60;;;;;;;;;;5035485;28;20120;-79
2022/09/16 03:06:26;;;;;;;3.08;0.98;;;;;;;;;;5002625;28;20033;-79
2022/09/16 03:08:52;;;;;;;2.42;0.80;;;;;;;;;;5035173;28;20129;-79
2022/09/16 03:11:21;;;;;;;2.45;0.95;;;;;;;;;;5002386;28;20048;-78
2022/09/16 03:14:06;;;;;;;3.95;1.02;;;;;;;;;;5053244;28;20037;-78
2022/09/16 03:16:51;;;;;;;2.47;0.70;;;;;;;;;;5035395;28;20415;-79
2022/09/16 03:19:25;;;;;;;1.27;0.70;;;;;;;;;;5018518;28;20150;-79
2022/09/16 03:21:52;;;;;;;3.72;0.88;;;;;;;;;;5035005;28;20072;-79
2022/09/16 03:24:44;;;;;;;2.92;0.90;;;;;;;;;;5053096;28;20029;-79
2022/09/16 03:27:31;;;;;;;2.28;0.82;;;;;;;;;;5026496;28;20474;-79
2022/09/16 03:30:04;;;;;;;1.90;0.63;;;;;;;;;;5018804;28;20117;-79
2022/09/16 03:32:46;;;;;;;2.80;0.77;;;;;;;;;;5017824;28;20056;-79
2022/09/16 03:35:18;;;;;;;2.40;0.80;;;;;;;;;;5018999;28;20095;-78
2022/09/16 03:37:43;;;;;;;2.57;0.50;;;;;;;;;;5018831;28;20040;-79
2022/09/16 03:40:11;;;;;;;3.25;0.95;;;;;;;;;;5018212;28;20319;-79
2022/09/16 03:42:40;;;;;;;2.22;0.70;;;;;;;;;;5018569;28;20029;-78
2022/09/16 03:45:06;;;;;;;3.58;0.75;;;;;;;;;;5018548;28;20094;-78
2022/09/16 03:47:32;;;;;;;2.42;0.70;;;;;;;;;;5001952;28;20041;-78
2022/09/16 03:49:58;;;;;;;2.55;0.77;;;;;;;;;;5018253;28;20041;-78
2022/09/16 03:52:24;;;;;;;2.30;0.50;;;;;;;;;;5001811;28;20114;-78
2022/09/16 03:54:49;;;;;;;1.92;0.65;;;;;;;;;;4998621;28;20416;-79
2022/09/16 03:57:15;;;;;;;4.10;0.80;;;;;;;;;;4982212;28;20163;-79
2022/09/16 03:59:40;;;;;;;2.22;1.10;;;;;;;;;;4982087;28;20488;-78
2022/09/16 04:02:06;;;;;;;2.40;0.73;;;;;;;;;;4998246;28;20404;-79
2022/09/16 04:04:31;;;;;;;2.75;0.70;;;;;;;;;;4998178;28;20492;-78
2022/09/16 04:06:57;;;;;;;2.53;0.60;;;;;;;;;;4981776;28;20397;-78
2022/09/16 04:09:22;;;;;;;3.92;0.70;;;;;;;;;;4998108;28;20053;-79
2022/09/16 04:11:48;;;;;;;2.60;0.82;;;;;;;;;;4981764;28;20037;-78
2022/09/16 04:14:13;;;;;;;4.03;0.70;;;;;;;;;;4982131;28;20064;-79
2022/09/16 04:16:39;;;;;;;4.78;0.60;;;;;;;;;;4982139;28;20029;-79
2022/09/16 04:19:04;;;;;;;3.50;0.70;;;;;;;;;;5014481;28;20518;-79
2022/09/16 04:21:29;;;;;;;3.00;0.70;;;;;;;;;;4982185;28;20033;-78
2022/09/16 04:23:55;;;;;;;1.95;0.63;;;;;;;;;;4981837;28;20107;-78
2022/09/16 04:26:20;;;;;;;3.83;1.02;;;;;;;;;;4998180;28;20112;-78
2022/09/16 04:28:46;;;;;;;2.88;1.05;;;;;;;;;;4981595;28;20412;-79
2022/09/16 04:31:13;;;;;;;1.65;0.60;;;;;;;;;;5009868;28;20430;-79
2022/09/16 04:33:39;;;;;;;1.75;0.55;;;;;;;;;;5001393;28;20041;-79
2022/09/16 04:36:07;;;;;;;3.28;0.70;;;;;;;;;;5017452;28;20804;-79
2022/09/16 04:38:33;;;;;;;2.17;0.68;;;;;;;;;;5017074;28;20033;-79
2022/09/16 04:41:00;;;;;;;3.03;0.73;;;;;;;;;;4985046;28;20055;-79
2022/09/16 04:43:25;;;;;;;2.42;0.60;;;;;;;;;;5001012;28;20044;-79
2022/09/16 04:45:51;;;;;;;1.85;0.60;;;;;;;;;;5017049;28;20033;-79
2022/09/16 04:48:16;;;;;;;1.58;0.50;;;;;;;;;;5000753;28;20063;-78
2022/09/16 04:50:42;;;;;;;3.13;0.57;;;;;;;;;;5017241;28;20415;-79
2022/09/16 04:53:08;;;;;;;3.55;0.82;;;;;;;;;;5033711;28;20111;-79
2022/09/16 04:55:33;;;;;;;1.85;0.60;;;;;;;;;;5017008;28;20040;-78
2022/09/16 04:58:00;;;;;;;2.60;0.70;;;;;;;;;;5033849;28;20062;-79
2022/09/16 05:00:25;;;;;;;2.88;0.65;;;;;;;;;;5017190;28;20037;-79
2022/09/16 05:02:53;;;;;;;3.67;0.75;;;;;;;;;;5033437;28;20044;-78
2022/09/16 05:05:19;;;;;;;1.75;0.50;;;;;;;;;;5033717;28;20044;-79
2022/09/16 05:07:44;;;;;;;3.58;0.70;;;;;;;;;;5033599;28;20372;-78
2022/09/16 05:10:10;;;;;;;2.85;0.60;;;;;;;;;;5016646;28;20415;-79
2022/09/16 05:12:35;;;;;;;1.67;0.50;;;;;;;;;;5033659;28;20072;-78
2022/09/16 05:15:01;;;;;;;2.67;0.60;;;;;;;;;;5016738;28;20404;-78
2022/09/16 05:17:28;;;;;;;2.50;0.43;;;;;;;;;;5016983;28;20522;-78
2022/09/16 05:19:53;;;;;;;3.25;0.65;;;;;;;;;;5033638;28;20065;-78
2022/09/16 05:22:19;;;;;;;1.55;0.50;;;;;;;;;;5016772;28;20091;-78
2022/09/16 05:24:45;;;;;;;1.55;0.40;;;;;;;;;;5000364;28;20461;-79
2022/09/16 05:27:10;;;;;;;2.42;0.70;;;;;;;;;;5017187;28;20037;-78
2022/09/16 05:29:35;;;;;;;2.40;0.57;;;;;;;;;;5032437;28;20414;-78
2022/09/16 05:32:01;;;;;;;1.63;0.40;;;;;;;;;;5012773;28;20116;-78
2022/09/16 05:34:27;;;;;;;1.42;0.47;;;;;;;;;;4980993;28;20052;-79
2022/09/16 05:36:54;;;;;;;2.25;0.77;;;;;;;;;;5017539;28;20061;-78
2022/09/16 05:39:20;;;;;;;1.90;0.65;;;;;;;;;;5000448;28;20037;-79
2022/09/16 05:41:46;;;;;;;2.63;0.52;;;;;;;;;;5000406;28;20030;-78
2022/09/16 05:44:12;;;;;;;1.55;0.40;;;;;;;;;;5000105;28;20087;-79
2022/09/16 05:46:39;;;;;;;2.08;0.60;;;;;;;;;;5000130;28;20040;-79
2022/09/16 05:49:05;;;;;;;2.75;0.63;;;;;;;;;;5033595;28;20037;-79
2022/09/16 05:51:30;;;;;;;1.65;0.60;;;;;;;;;;5013114;28;20030;-78
2022/09/16 05:53:57;;;;;;;4.82;1.00;;;;;;;;;;5013250;28;20033;-79
2022/09/16 05:56:27;;;;;;;3.05;1.00;;;;;;;;;;5015730;28;20048;-78
2022/09/16 05:58:54;;;;;;;23.17;1.55;;;;;;;;;;4998044;28;20041;-78
2022/09/16 06:01:21;;;;;;;7.30;0.68;;;;;;;;;;5031040;28;20030;-79
2022/09/16 06:03:48;;;;;;;8.43;1.40;;;;;;;;;;5017299;28;20047;-78
2022/09/16 06:06:23;;;;;;;6.20;1.23;;;;;;;;;;5000440;28;20053;-78
2022/09/16 06:08:48;;;;;;;10.82;1.58;;;;;;;;;;5000388;28;20065;-78
2022/09/16 06:11:14;;;;;;;11.13;1.50;;;;;;;;;;5016568;28;20076;-79
2022/09/16 06:13:40;;;;;;;6.28;1.10;;;;;;;;;;5000521;28;20048;-78
2022/09/16 06:16:06;;;;;;;7.00;0.82;;;;;;;;;;5000368;28;20038;-78
2022/09/16 06:18:32;;;;;;;3.97;1.10;;;;;;;;;;5017071;28;20041;-78
2022/09/16 06:21:02;;;;;;;7.93;0.90;;;;;;;;;;5016780;28;20033;-78
2022/09/16 06:23:27;;;;;;;6.13;1.30;;;;;;;;;;4984075;28;20120;-79
2022/09/16 06:26:00;;;;;;;3.05;0.63;;;;;;;;;;5016150;28;20112;-79
2022/09/16 06:28:26;;;;;;;6.95;1.05;;;;;;;;;;5000222;28;20044;-79
2022/09/16 06:31:20;;;;;;;4.63;0.70;;;;;;;;;;5016345;28;20034;-79
2022/09/16 06:33:45;;;;;;;4.85;0.75;;;;;;;;;;5032685;28;20428;-79
2022/09/16 06:36:16;;;;;;;8.27;1.60;;;;;;;;;;5016286;28;20037;-80
2022/09/16 06:38:42;;;;;;;5.43;1.23;;;;;;;;;;5014891;28;20033;-80
2022/09/16 06:41:09;;;;;;;5.05;0.80;;;;;;;;;;4999662;28;20073;-80
2022/09/16 06:43:35;;;;;;;3.42;0.52;;;;;;;;;;5000312;28;20053;-80
2022/09/16 06:46:17;;;;;;;4.88;1.00;;;;;;;;;;5000094;28;20045;-81
2022/09/16 06:48:47;;;;;;;5.32;0.90;;;;;;;;;;5017771;28;20033;-79
2022/09/16 06:51:15;;;;;;;4.57;0.88;;;;;;;;;;5019123;28;20504;-80
2022/09/16 06:53:40;;;;;;;4.05;1.15;;;;;;;;;;5019496;28;20453;-80
2022/09/16 06:56:09;;;;;;;6.03;1.02;;;;;;;;;;5018987;28;20037;-80
2022/09/16 06:58:35;;;;;;;10.32;1.25;;;;;;;;;;5019368;28;20040;-80
2022/09/16 07:01:11;;;;;;;5.05;1.00;;;;;;;;;;5019082;28;20037;-80
2022/09/16 07:03:37;;;;;;;11.70;1.83;;;;;;;;;;5019237;28;20045;-80
2022/09/16 07:06:03;;;;;;;5.63;1.30;;;;;;;;;;5001791;28;20120;-79
2022/09/16 07:08:30;;;;;;;4.75;0.82;;;;;;;;;;5035222;28;20434;-79
2022/09/16 07:11:06;;;;;;;7.63;1.30;;;;;;;;;;5018953;28;20060;-80
2022/09/16 07:13:32;;;;;;;5.78;1.27;;;;;;;;;;5035372;28;20041;-80
2022/09/16 07:16:02;;;;;;;5.80;0.98;;;;;;;;;;5035481;28;20504;-80
2022/09/16 07:18:29;;;;;;;7.18;1.20;;;;;;;;;;5018545;28;20099;-78
2022/09/16 07:21:02;;;;;;;6.07;0.90;;;;;;;;;;5019247;28;20037;-78
2022/09/16 07:23:30;;;;;;;6.40;1.35;;;;;;;;;;5001047;28;20037;-78
2022/09/16 07:26:09;;;;;;;5.25;1.00;;;;;;;;;;5018496;28;20033;-78
2022/09/16 07:28:35;;;;;;;4.88;1.40;;;;;;;;;;5051400;28;20041;-78
2022/09/16 07:31:05;;;;;;;5.50;1.10;;;;;;;;;;5034701;28;20116;-78
2022/09/16 07:33:32;;;;;;;7.75;1.35;;;;;;;;;;4985790;28;20611;-78
2022/09/16 07:35:59;;;;;;;8.80;2.03;;;;;;;;;;5018944;28;20025;-78
2022/09/16 07:38:24;;;;;;;6.30;1.05;;;;;;;;;;4981896;28;20113;-78
2022/09/16 07:40:50;;;;;;;6.68;1.00;;;;;;;;;;4998458;28;20045;-79
2022/09/16 07:43:15;;;;;;;4.15;0.95;;;;;;;;;;5014650;28;20122;-78
2022/09/16 07:45:41;;;;;;;8.45;1.00;;;;;;;;;;5014686;28;20415;-78
2022/09/16 07:48:06;;;;;;;9.85;1.30;;;;;;;;;;4998384;28;20412;-78
2022/09/16 07:50:32;;;;;;;6.47;1.25;;;;;;;;;;4983068;28;20420;-78
2022/09/16 07:52:57;;;;;;;4.88;1.30;;;;;;;;;;5017842;28;20037;-78
2022/09/16 07:55:22;;;;;;;2.97;0.93;;;;;;;;;;5017230;28;20087;-78
2022/09/16 07:57:48;;;;;;;8.73;1.10;;;;;;;;;;5017928;28;20462;-78
2022/09/16 08:00:15;;;;;;;4.65;1.13;;;;;;;;;;5018043;28;20496;-77
2022/09/16 08:02:40;;;;;;;7.65;1.38;;;;;;;;;;5018137;28;20518;-78
2022/09/16 08:05:06;;;;;;;5.13;1.23;;;;;;;;;;5018235;28;20036;-82
2022/09/16 08:07:32;;;;;;;7.82;2.97;;;;;;;;;;5017390;28;20116;-83
2022/09/16 08:09:57;;;;;;;7.65;2.53;;;;;;;;;;5034302;28;20033;-84
2022/09/16 08:12:23;;;;;;;7.90;2.72;;;;;;;;;;5007103;28;20458;-82
2022/09/16 08:14:48;;;;;;;5.82;2.60;;;;;;;;;;4986982;28;20021;-83
2022/09/16 08:17:13;;;;;;;7.53;2.80;;;;;;;;;;5004754;28;20061;-81
2022/09/16 08:19:40;;;;;;;11.38;3.10;;;;;;;;;;4997137;28;20494;-81
2022/09/16 08:22:06;;;;;;;7.53;2.47;;;;;;;;;;4981441;28;20033;-81
2022/09/16 08:24:31;;;;;;;7.32;2.65;;;;;;;;;;4981449;28;20049;-80
2022/09/16 08:26:57;;;;;;;6.75;2.38;;;;;;;;;;5000796;28;20045;-81
2022/09/16 08:29:24;;;;;;;7.15;2.10;;;;;;;;;;5001029;28;20449;-81
2022/09/16 08:31:50;;;;;;;7.55;2.00;;;;;;;;;;4981412;28;20080;-82
2022/09/16 08:34:17;;;;;;;5.18;2.05;;;;;;;;;;5014754;28;20404;-81
2022/09/16 08:36:42;;;;;;;5.95;1.70;;;;;;;;;;5016768;28;20181;-82
2022/09/16 08:39:08;;;;;;;4.20;1.80;;;;;;;;;;4981299;28;20060;-82
2022/09/16 08:41:59;;;;;;;5.97;2.10;;;;;;;;;;4981825;28;20041;-82
2022/09/16 08:44:49;;;;;;;6.13;1.70;;;;;;;;;;4982610;28;20057;-82
2022/09/16 08:48:01;;;;;;;5.10;1.65;;;;;;;;;;4997846;28;20030;-82
2022/09/16 08:50:29;;;;;;;3.38;1.30;;;;;;;;;;4995100;28;20041;-81
2022/09/16 08:52:56;;;;;;;9.52;2.13;;;;;;;;;;5017218;28;20044;-81
2022/09/16 08:55:30;;;;;;;9.60;1.65;;;;;;;;;;5033458;28;20037;-81
2022/09/16 08:58:09;;;;;;;8.20;1.98;;;;;;;;;;5018246;28;20048;-82
2022/09/16 09:00:36;;;;;;;7.35;1.70;;;;;;;;;;5017105;28;20124;-81
2022/09/16 09:03:35;;;;;;;7.40;2.15;;;;;;;;;;5033606;28;20040;-81
2022/09/16 09:06:03;;;;;;;9.02;1.38;;;;;;;;;;5017068;28;20037;-82
2022/09/16 09:08:59;;;;;;;8.85;2.00;;;;;;;;;;5000221;28;20084;-81
2022/09/16 09:11:43;;;;;;;6.22;1.98;;;;;;;;;;4991109;28;20143;-82
2022/09/16 09:14:18;;;;;;;7.60;1.90;;;;;;;;;;5017000;28;20118;-81
2022/09/16 09:16:58;;;;;;;5.32;1.65;;;;;;;;;;5033806;28;20048;-81
2022/09/16 09:19:55;;;;;;;6.32;1.27;;;;;;;;;;5016846;28;20178;-81
2022/09/16 09:22:58;;;;;;;6.72;1.17;;;;;;;;;;5033326;28;20037;-81
2022/09/16 09:25:39;;;;;;;12.50;1.70;;;;;;;;;;5016607;28;20445;-81
2022/09/16 09:28:28;;;;;;;9.32;1.98;;;;;;;;;;5017129;28;20037;-79
2022/09/16 09:31:15;;;;;;;6.90;1.17;;;;;;;;;;5033522;28;20115;-81
2022/09/16 09:33:48;;;;;;;8.07;1.33;;;;;;;;;;4999791;28;20531;-81
2022/09/16 09:36:39;;;;;;;5.90;1.20;;;;;;;;;;5000261;28;20507;-81
2022/09/16 09:39:18;;;;;;;3.70;1.33;;;;;;;;;;4984398;28;20043;-81
2022/09/16 09:42:20;;;;;;;6.28;1.23;;;;;;;;;;5017406;28;20040;-81
2022/09/16 09:44:49;;;;;;;5.50;1.43;;;;;;;;;;5017466;28;20030;-81
2022/09/16 09:47:32;;;;;;;7.88;1.50;;;;;;;;;;4985290;28;20041;-81
2022/09/16 09:50:43;;;;;;;8.77;1.73;;;;;;;;;;5011134;28;20033;-81
2022/09/16 09:53:32;;;;;;;5.47;1.15;;;;;;;;;;4922070;29;20043;-80
2022/09/16 09:56:28;;;;;;;10.63;1.33;;;;;;;;;;4909225;29;20043;-81
2022/09/16 09:58:53;;;;;;;4.07;0.70;;;;;;;;;;4989743;28;20049;-79
2022/09/16 10:01:19;;;;;;;5.22;1.40;;;;;;;;;;5016806;28;20500;-80
2022/09/16 10:03:45;;;;;;;6.40;1.15;;;;;;;;;;5000515;28;20518;-79
2022/09/16 10:06:15;;;;;;;6.25;0.80;;;;;;;;;;4984028;28;20033;-80
2022/09/16 10:08:47;;;;;;;7.70;1.25;;;;;;;;;;4983830;28;20071;-81
2022/09/16 10:11:18;;;;;;;5.95;1.02;;;;;;;;;;5000787;28;20052;-80
2022/09/16 10:13:51;;;;;;;5.63;0.90;;;;;;;;;;4984054;28;20083;-79
2022/09/16 10:16:31;;;;;;;7.22;1.05;;;;;;;;;;5016310;28;20034;-79
2022/09/16 10:19:21;;;;;;;6.03;1.40;;;;;;;;;;5016498;28;20040;-79
2022/09/16 10:21:54;;;;;;;5.30;0.93;;;;;;;;;;4999672;28;20630;-80
2022/09/16 10:24:32;;;;;;;6.05;0.90;;;;;;;;;;5016206;28;20044;-80
2022/09/16 10:26:58;;;;;;;7.93;1.52;;;;;;;;;;5000388;28;20446;-79
2022/09/16 10:29:24;;;;;;;3.97;0.85;;;;;;;;;;5016591;28;20041;-80
2022/09/16 10:31:49;;;;;;;5.55;1.50;;;;;;;;;;5000166;28;20037;-79
2022/09/16 10:34:27;;;;;;;19.83;12.93;;;;;;;;;;5002922;28;20060;-80
2022/09/16 10:37:00;;;;;;;23.30;17.70;;;;;;;;;;5036509;28;20515;-80
2022/09/16 10:39:26;;;;;;;17.02;11.73;;;;;;;;;;4986995;28;20036;-80
2022/09/16 10:41:52;;;;;;;17.73;11.90;;;;;;;;;;5003164;28;20029;-79
2022/09/16 10:44:27;;;;;;;16.77;10.73;;;;;;;;;;5002545;28;20036;-80
2022/09/16 10:46:57;;;;;;;15.23;10.25;;;;;;;;;;5017896;28;20040;-80
2022/09/16 10:49:50;;;;;;;11.57;8.63;;;;;;;;;;5019531;28;20041;-80
2022/09/16 10:52:16;;;;;;;16.13;9.60;;;;;;;;;;5000446;28;20049;-80
2022/09/16 10:54:41;;;;;;;12.25;7.85;;;;;;;;;;5015100;28;20508;-80
2022/09/16 10:57:27;;;;;;;14.63;8.73;;;;;;;;;;4983278;28;20068;-80
2022/09/16 11:00:15;;;;;;;14.45;8.00;;;;;;;;;;4999792;28;20503;-80
2022/09/16 11:02:56;;;;;;;12.15;7.43;;;;;;;;;;4983030;28;20033;-80
2022/09/16 11:06:09;;;;;;;12.45;7.05;;;;;;;;;;5032238;28;20045;-80
2022/09/16 11:08:53;;;;;;;13.10;7.13;;;;;;;;;;5011146;28;20527;-80
2022/09/16 11:11:18;;;;;;;11.07;5.82;;;;;;;;;;5033055;28;20033;-80
2022/09/16 11:13:58;;;;;;;14.23;6.15;;;;;;;;;;5030435;28;20931;-80
2022/09/16 11:16:34;;;;;;;9.82;5.50;;;;;;;;;;4998899;28;20048;-80
2022/09/16 11:19:28;;;;;;;9.90;5.03;;;;;;;;;;4999321;28;20045;-81
2022/09/16 11:22:19;;;;;;;9.15;4.85;;;;;;;;;;4998868;28;20516;-80
2022/09/16 11:24:51;;;;;;;13.85;4.97;;;;;;;;;;5017896;28;20069;-82
2022/09/16 11:27:34;;;;;;;;;;;;;;;;;;5000482;28;20513;-82
2022/09/16 11:30:03;;;;;;;9.95;4.15;;;;;;;;;;5000746;28;19912;-80
2022/09/16 11:32:39;;;;;;;11.00;3.88;;;;;;;;;;5018212;28;20542;-81
2022/09/16 11:35:39;;;;;;;9.32;4.53;;;;;;;;;;5018559;28;20051;-82
2022/09/16 11:38:05;;;;;;;16.67;4.63;;;;;;;;;;5017920;28;20036;-80
2022/09/16 11:40:30;;;;;;;14.02;3.67;;;;;;;;;;5035249;28;20040;-79
2022/09/16 11:43:20;;;;;;;11.98;4.13;;;;;;;;;;5018079;28;20044;-79
2022/09/16 11:46:00;;;;;;;11.52;3.70;;;;;;;;;;5018132;28;20048;-78
2022/09/16 11:48:39;;;;;;;6.55;3.05;;;;;;;;;;5001760;28;20098;-78
2022/09/16 11:51:28;;;;;;;4.80;1.90;;;;;;;;;;4999074;28;20108;-79
2022/09/16 11:54:00;;;;;;;5.95;1.98;;;;;;;;;;5014314;28;20041;-79
2022/09/16 11:56:51;;;;;;;5.93;2.13;;;;;;;;;;4998727;28;20036;-78
2022/09/16 11:59:30;;;;;;;5.93;2.05;;;;;;;;;;5014157;28;20060;-79
2022/09/16 12:02:22;;;;;;;7.13;2.00;;;;;;;;;;4983221;28;20091;-79
2022/09/16 12:05:01;;;;;;;4.45;1.58;;;;;;;;;;4979991;28;20057;-78
2022/09/16 12:07:35;;;;;;;8.60;1.92;;;;;;;;;;4969455;28;20048;-78
2022/09/16 12:10:06;;;;;;;4.82;1.88;;;;;;;;;;4983897;28;20030;-78
2022/09/16 12:12:36;;;;;;;5.15;1.88;;;;;;;;;;4998518;28;20140;-78
2022/09/16 12:15:06;;;;;;;4.32;1.42;;;;;;;;;;4998291;28;20044;-79
2022/09/16 12:17:36;;;;;;;3.35;1.27;;;;;;;;;;4998624;28;20041;-78
2022/09/16 12:20:13;;;;;;;3.92;1.17;;;;;;;;;;4982242;28;20598;-77
2022/09/16 12:22:46;;;;;;;4.05;1.10;;;;;;;;;;4983055;28;20045;-78
2022/09/16 12:25:21;;;;;;;8.43;1.42;;;;;;;;;;4998175;28;20033;-78
2022/09/16 12:27:55;;;;;;;3.60;1.17;;;;;;;;;;4998252;28;20045;-77
2022/09/16 12:30:32;;;;;;;3.05;1.08;;;;;;;;;;5003516;28;20361;-78
2022/09/16 12:33:23;;;;;;;4.22;1.02;;;;;;;;;;5002958;28;20090;-78
2022/09/16 12:36:07;;;;;;;2.60;1.00;;;;;;;;;;5000882;28;21088;-78
2022/09/16 12:38:33;;;;;;;5.35;0.80;;;;;;;;;;5002298;28;20040;-80
2022/09/16 12:41:23;;;;;;;3.05;0.95;;;;;;;;;;4993582;28;20025;-79
2022/09/16 12:44:04;;;;;;;4.35;0.90;;;;;;;;;;4997246;28;20037;-78
2022/09/16 12:47:05;;;;;;;2.80;0.95;;;;;;;;;;5043506;28;20041;-79
2022/09/16 12:49:41;;;;;;;1.75;0.57;;;;;;;;;;5019319;28;20052;-79
2022/09/16 12:52:21;;;;;;;2.90;0.80;;;;;;;;;;5002224;28;20025;-79
2022/09/16 12:55:19;;;;;;;3.70;0.93;;;;;;;;;;5013866;28;20106;-78
2022/09/16 12:57:51;;;;;;;8.05;0.70;;;;;;;;;;4960875;28;20043;-78
2022/09/16 13:00:20;;;;;;;3.58;0.82;;;;;;;;;;4998259;28;20040;-78
2022/09/16 13:02:48;;;;;;;6.15;0.95;;;;;;;;;;4981977;28;20045;-78
2022/09/16 13:05:27;;;;;;;6.85;0.70;;;;;;;;;;5013786;28;20120;-77
2022/09/16 13:07:54;;;;;;;5.72;0.95;;;;;;;;;;5016322;28;20069;-79
2022/09/16 13:10:36;;;;;;;5.65;0.98;;;;;;;;;;5001112;28;20536;-77
2022/09/16 13:13:02;;;;;;;6.63;0.93;;;;;;;;;;5017536;28;20087;-80
2022/09/16 13:15:33;;;;;;;4.05;1.15;;;;;;;;;;5000940;28;20041;-82
2022/09/16 13:18:13;;;;;;;13.07;1.45;;;;;;;;;;5003447;28;20033;-81
2022/09/16 13:20:40;;;;;;;5.55;1.58;;;;;;;;;;5019012;28;20029;-83
2022/09/16 13:23:14;;;;;;;5.68;1.00;;;;;;;;;;5002978;28;20082;-84
2022/09/16 13:26:09;;;;;;;5.65;0.95;;;;;;;;;;5020398;28;20082;-86
2022/09/16 13:28:39;;;;;;;6.45;1.00;;;;;;;;;;5014806;28;20076;-82
2022/09/16 13:31:15;;;;;;;10.60;2.00;;;;;;;;;;5016801;28;20522;-80
2022/09/16 13:34:13;;;;;;;9.43;1.38;;;;;;;;;;5051101;28;20049;-81
2022/09/16 13:36:38;;;;;;;11.65;1.48;;;;;;;;;;5012584;28;20080;-81
2022/09/16 13:39:09;;;;;;;11.65;1.65;;;;;;;;;;5017895;28;20052;-81
2022/09/16 13:41:45;;;;;;;9.57;1.85;;;;;;;;;;5016456;28;20060;-81
2022/09/16 13:44:49;;;;;;;7.00;1.00;;;;;;;;;;5018532;28;20128;-81
2022/09/16 13:47:29;;;;;;;9.85;1.40;;;;;;;;;;4986558;28;20087;-80
2022/09/16 13:50:21;;;;;;;11.23;1.33;;;;;;;;;;5017022;28;20036;-81
2022/09/16 13:52:47;;;;;;;11.20;1.38;;;;;;;;;;4994113;28;20096;-81
2022/09/16 13:55:21;;;;;;;3.72;0.80;;;;;;;;;;4980810;28;20037;-81
2022/09/16 13:58:13;;;;;;;5.75;0.98;;;;;;;;;;4997346;28;20480;-80
2022/09/16 14:01:15;;;;;;;9.73;0.97;;;;;;;;;;4985565;28;20104;-81
2022/09/16 14:04:06;;;;;;;4.47;0.93;;;;;;;;;;4997095;28;20702;-81
2022/09/16 14:06:56;;;;;;;6.22;1.38;;;;;;;;;;5013052;28;20119;-81
2022/09/16 14:09:33;;;;;;;14.25;1.77;;;;;;;;;;4980116;28;20045;-81
2022/09/16 14:12:23;;;;;;;6.70;0.73;;;;;;;;;;4997207;28;20026;-81
2022/09/16 14:14:49;;;;;;;7.45;1.13;;;;;;;;;;4986064;28;20072;-81
2022/09/16 14:17:36;;;;;;;7.88;0.98;;;;;;;;;;4997689;28;20033;-81
2022/09/16 14:20:02;;;;;;;8.70;0.90;;;;;;;;;;4985317;28;20550;-81
2022/09/16 14:22:29;;;;;;;4.32;0.98;;;;;;;;;;4983831;28;20033;-81
2022/09/16 14:24:54;;;;;;;7.80;1.85;;;;;;;;;;5000040;28;20120;-81
2022/09/16 14:27:29;;;;;;;13.90;1.02;;;;;;;;;;4984012;28;20671;-81
2022/09/16 14:30:02;;;;;;;7.38;0.70;;;;;;;;;;4985298;28;20044;-81
2022/09/16 14:32:30;;;;;;;7.15;0.93;;;;;;;;;;5003212;28;20467;-81
2022/09/16 14:34:58;;;;;;;5.95;0.77;;;;;;;;;;5002859;28;20045;-81
2022/09/16 14:37:24;;;;;;;4.72;0.60;;;;;;;;;;4983858;28;20038;-81
2022/09/16 14:39:50;;;;;;;5.65;0.75;;;;;;;;;;4986758;28;20083;-82
2022/09/16 14:42:17;;;;;;;7.75;0.70;;;;;;;;;;4986221;28;20399;-82
2022/09/16 14:44:47;;;;;;;13.07;4.75;;;;;;;;;;4998312;28;20029;-81
2022/09/16 14:47:32;;;;;;;205.88;143.02;;;;;;;;;;5003014;28;20084;-83
2022/09/16 14:50:15;;;;;;;102.03;68.93;;;;;;;;;;5014359;28;20036;-81
2022/09/16 14:52:41;;;;;;;144.48;94.03;;;;;;;;;;5020522;28;20029;-82
2022/09/16 14:55:18;;;;;;;176.32;113.63;;;;;;;;;;4986648;28;20052;-83
2022/09/16 14:57:43;;;;;;;208.00;137.13;;;;;;;;;;4987648;28;20025;-82
2022/09/16 15:00:12;;;;;;;227.20;141.45;;;;;;;;;;4986460;28;20048;-82
2022/09/16 15:03:02;;;;;;;225.40;145.38;;;;;;;;;;4984273;28;20059;-83
2022/09/16 15:05:33;;;;;;;473.88;324.40;;;;;;;;;;5010425;28;20045;-82
2022/09/16 15:08:17;;;;;;;443.70;289.02;;;;;;;;;;4982257;28;20086;-83
2022/09/16 15:10:51;;;;;;;350.15;222.98;;;;;;;;;;5033514;28;20026;-82
2022/09/16 15:13:17;;;;;;;331.33;208.52;;;;;;;;;;4983531;28;20030;-83
2022/09/16 15:15:48;;;;;;;306.98;193.07;;;;;;;;;;4998789;28;20041;-82
2022/09/16 15:18:23;;;;;;;289.50;181.93;;;;;;;;;;4982638;28;20040;-83